Rothorn — V2AY3 — position and weather

sailwx.info

Track history (hours):
 
Tides and Currents Weather Stations Pressure Air Temp Water Temp Dewpoint Dewpoint Depression Visibility Wind Speed Wind Dir Waves Ship Positions

Rothorn

Last reported at 2017-Nov-18 21:23 UTC. Time now 2017-Nov-22 13:11 UTC.
Position N 25°54' W 079°54'.

Length 157.1 m; beam 23.5 m; draft 9.3 m.

Type: Cargo ship. MMSI: 304128000.

Date/timePositionNaut miles runAvg speedWind from/ knotsBaromVisibWave heightAir tempDewpointWater temp
2017-Nov-18 21:23N 25°54' W 079°54'815.8
2017-Nov-18 20:52N 26°01' W 079°59'716.6
2017-Nov-18 20:27N 26°05' W 080°05'2 4.7
2017-Nov-18 20:01N 26°05' W 080°07'1 1.3
2017-Nov-18 19:29N 26°04' W 080°07'0 0.0
2017-Nov-18 18:59N 26°04' W 080°07'0 0.0
2017-Nov-18 18:30N 26°04' W 080°07'0 0.0
2017-Nov-18 17:59N 26°04' W 080°07'0 0.0
2017-Nov-18 17:21N 26°04' W 080°07'0 0.0
2017-Nov-18 16:50N 26°04' W 080°07'0 0.0
2017-Nov-18 16:21N 26°04' W 080°07'0 0.0
2017-Nov-18 15:53N 26°04' W 080°07'0 0.0
2017-Nov-18 15:24N 26°04' W 080°07'0 0.0
2017-Nov-18 14:54N 26°04' W 080°07'0 0.0
2017-Nov-18 14:24N 26°04' W 080°07'0 0.0
2017-Nov-18 13:54N 26°04' W 080°07'0 0.0
2017-Nov-18 13:24N 26°04' W 080°07'0 0.0
2017-Nov-18 12:57N 26°04' W 080°07'0 0.0
2017-Nov-18 12:27N 26°04' W 080°07'0 0.0
2017-Nov-18 11:57N 26°04' W 080°07'0 0.0
2017-Nov-18 11:26N 26°04' W 080°07'0 0.1
2017-Nov-18 10:57N 26°04' W 080°07'0 0.0
2017-Nov-18 10:29N 26°04' W 080°07'0 0.0
2017-Nov-18 09:59N 26°04' W 080°07'0 0.0
2017-Nov-18 09:30N 26°04' W 080°07'0 0.0
2017-Nov-18 08:59N 26°04' W 080°07'0 0.0
2017-Nov-18 08:30N 26°04' W 080°07'0 0.0
2017-Nov-18 07:59N 26°04' W 080°07'0 0.0
2017-Nov-18 07:29N 26°04' W 080°07'0 0.0
2017-Nov-18 06:59N 26°04' W 080°07'0 0.0
2017-Nov-18 06:30N 26°04' W 080°07'0 0.0
2017-Nov-18 06:00N 26°04' W 080°07'0 0.0
2017-Nov-18 05:30N 26°04' W 080°07'0 0.0
2017-Nov-18 04:59N 26°04' W 080°07'0 0.0
2017-Nov-18 04:30N 26°04' W 080°07'0 0.0
2017-Nov-18 04:00N 26°04' W 080°07'0 0.0
2017-Nov-18 03:21N 26°04' W 080°07'0 0.0
2017-Nov-18 02:51N 26°04' W 080°07'0 0.0
2017-Nov-18 02:21N 26°04' W 080°07'0 0.0
2017-Nov-18 01:54N 26°04' W 080°07'0 0.0
2017-Nov-18 01:24N 26°04' W 080°07'0 0.0
2017-Nov-18 00:53N 26°04' W 080°07'0 0.0
2017-Nov-18 00:23N 26°04' W 080°07'0 0.0
2017-Nov-17 23:54N 26°04' W 080°07'0 0.0
2017-Nov-17 23:24N 26°04' W 080°07'0 0.0
2017-Nov-17 22:56N 26°04' W 080°07'0 0.0
2017-Nov-17 22:26N 26°04' W 080°07'0 0.0
2017-Nov-17 21:56N 26°04' W 080°07'0 0.1
2017-Nov-17 21:30N 26°04' W 080°07'2 3.0
2017-Nov-17 21:00N 26°05' W 080°07'4 8.0
2017-Nov-17 20:30N 26°05' W 080°02'4 7.2
2017-Nov-17 20:00N 26°05' W 079°58'2 2.6
2017-Nov-17 19:13N 26°05' W 079°56'0 0.5
2017-Nov-17 19:00N 26°05' W 079°56'1 2.2
2017-Nov-17 18:30N 26°06' W 079°56'2 4.3
2017-Nov-17 18:00N 26°08' W 079°56'2 4.4
2017-Nov-17 17:30N 26°10' W 079°56'2 4.5
2017-Nov-17 17:00N 26°13' W 079°56'4 7.8
2017-Nov-17 16:29N 26°17' W 079°56'4415.4
2017-Nov-17 13:39N 27°00' W 079°57'  
2017-Nov-15 03:30N 26°59' W 079°57'1515.5
2017-Nov-15 02:33N 26°45' W 079°56'116.6
2017-Nov-15 02:29N 26°44' W 079°56'817.0
2017-Nov-15 02:00N 26°35' W 079°56'1918.2
2017-Nov-15 00:57N 26°16' W 079°58'817.9
2017-Nov-15 00:30N 26°09' W 080°02'510.7
2017-Nov-15 00:00N 26°06' W 080°06'2 3.5
2017-Nov-14 23:30N 26°04' W 080°07'0 0.0
2017-Nov-14 23:00N 26°04' W 080°07'0 0.0
2017-Nov-14 22:30N 26°04' W 080°07'0 0.0
2017-Nov-14 22:00N 26°04' W 080°07'0 0.0
2017-Nov-14 21:30N 26°04' W 080°07'0 0.0
2017-Nov-14 21:00N 26°04' W 080°07'0 0.0
2017-Nov-14 20:27N 26°04' W 080°07'0 0.0
2017-Nov-14 20:00N 26°04' W 080°07'0 0.0
2017-Nov-14 19:30N 26°04' W 080°07'0 0.0
2017-Nov-14 19:00N 26°04' W 080°07'0 0.0
2017-Nov-14 18:30N 26°04' W 080°07'0 0.0
2017-Nov-14 18:00N 26°04' W 080°07'0 0.0
2017-Nov-14 17:30N 26°04' W 080°07'0 0.0
2017-Nov-14 17:00N 26°04' W 080°07'0 0.0
2017-Nov-14 16:30N 26°04' W 080°07'0 0.0
2017-Nov-14 15:51N 26°04' W 080°07'0 0.0
2017-Nov-14 15:21N 26°04' W 080°07'0 0.0
2017-Nov-14 14:51N 26°04' W 080°07'0 0.0
2017-Nov-14 14:24N 26°04' W 080°07'0 0.0
2017-Nov-14 13:54N 26°04' W 080°07'0 0.0
2017-Nov-14 13:24N 26°04' W 080°07'0 0.0
2017-Nov-14 12:54N 26°04' W 080°07'0 0.0
2017-Nov-14 12:24N 26°04' W 080°07'0 0.0
2017-Nov-14 11:42N 26°04' W 080°07'0 0.0
2017-Nov-14 11:27N 26°04' W 080°07'0 0.6
2017-Nov-14 11:00N 26°04' W 080°07'1 3.0
2017-Nov-14 10:30N 26°06' W 080°06'5 9.0
2017-Nov-14 10:00N 26°05' W 080°02'3 6.7
2017-Nov-14 09:30N 26°02' W 079°59'918.0
2017-Nov-14 09:00N 25°55' W 079°53'5516.3
2017-Nov-14 05:36N 25°00' W 079°43'217.8
2017-Nov-14 05:31N 24°59' W 079°43'  
Track history (hours):
 
Tides and Currents Weather Stations Pressure Air Temp Water Temp Dewpoint Dewpoint Depression Visibility Wind Speed Wind Dir Waves Ship Positions

Rothorn

Last reported at 2017-Nov-18 21:23 UTC. Time now 2017-Nov-22 13:11 UTC.
Position N 25°54' W 079°54'.

Length 157.1 m; beam 23.5 m; draft 9.3 m.

Type: Cargo ship. MMSI: 304128000.

Date/timePositionNaut miles runAvg speedWind from/ knotsBaromVisibWave heightAir tempDewpointWater temp
2017-Nov-18 21:23N 25°54' W 079°54'815.8
2017-Nov-18 20:52N 26°01' W 079°59'716.6
2017-Nov-18 20:27N 26°05' W 080°05'2 4.7
2017-Nov-18 20:01N 26°05' W 080°07'1 1.3
2017-Nov-18 19:29N 26°04' W 080°07'0 0.0
2017-Nov-18 18:59N 26°04' W 080°07'0 0.0
2017-Nov-18 18:30N 26°04' W 080°07'0 0.0
2017-Nov-18 17:59N 26°04' W 080°07'0 0.0
2017-Nov-18 17:21N 26°04' W 080°07'0 0.0
2017-Nov-18 16:50N 26°04' W 080°07'0 0.0
2017-Nov-18 16:21N 26°04' W 080°07'0 0.0
2017-Nov-18 15:53N 26°04' W 080°07'0 0.0
2017-Nov-18 15:24N 26°04' W 080°07'0 0.0
2017-Nov-18 14:54N 26°04' W 080°07'0 0.0
2017-Nov-18 14:24N 26°04' W 080°07'0 0.0
2017-Nov-18 13:54N 26°04' W 080°07'0 0.0
2017-Nov-18 13:24N 26°04' W 080°07'0 0.0
2017-Nov-18 12:57N 26°04' W 080°07'0 0.0
2017-Nov-18 12:27N 26°04' W 080°07'0 0.0
2017-Nov-18 11:57N 26°04' W 080°07'0 0.0
2017-Nov-18 11:26N 26°04' W 080°07'0 0.1
2017-Nov-18 10:57N 26°04' W 080°07'0 0.0
2017-Nov-18 10:29N 26°04' W 080°07'0 0.0
2017-Nov-18 09:59N 26°04' W 080°07'0 0.0
2017-Nov-18 09:30N 26°04' W 080°07'0 0.0
2017-Nov-18 08:59N 26°04' W 080°07'0 0.0
2017-Nov-18 08:30N 26°04' W 080°07'0 0.0
2017-Nov-18 07:59N 26°04' W 080°07'0 0.0
2017-Nov-18 07:29N 26°04' W 080°07'0 0.0
2017-Nov-18 06:59N 26°04' W 080°07'0 0.0
2017-Nov-18 06:30N 26°04' W 080°07'0 0.0
2017-Nov-18 06:00N 26°04' W 080°07'0 0.0
2017-Nov-18 05:30N 26°04' W 080°07'0 0.0
2017-Nov-18 04:59N 26°04' W 080°07'0 0.0
2017-Nov-18 04:30N 26°04' W 080°07'0 0.0
2017-Nov-18 04:00N 26°04' W 080°07'0 0.0
2017-Nov-18 03:21N 26°04' W 080°07'0 0.0
2017-Nov-18 02:51N 26°04' W 080°07'0 0.0
2017-Nov-18 02:21N 26°04' W 080°07'0 0.0
2017-Nov-18 01:54N 26°04' W 080°07'0 0.0
2017-Nov-18 01:24N 26°04' W 080°07'0 0.0
2017-Nov-18 00:53N 26°04' W 080°07'0 0.0
2017-Nov-18 00:23N 26°04' W 080°07'0 0.0
2017-Nov-17 23:54N 26°04' W 080°07'0 0.0
2017-Nov-17 23:24N 26°04' W 080°07'0 0.0
2017-Nov-17 22:56N 26°04' W 080°07'0 0.0
2017-Nov-17 22:26N 26°04' W 080°07'0 0.0
2017-Nov-17 21:56N 26°04' W 080°07'0 0.1
2017-Nov-17 21:30N 26°04' W 080°07'2 3.0
2017-Nov-17 21:00N 26°05' W 080°07'4 8.0
2017-Nov-17 20:30N 26°05' W 080°02'4 7.2
2017-Nov-17 20:00N 26°05' W 079°58'2 2.6
2017-Nov-17 19:13N 26°05' W 079°56'0 0.5
2017-Nov-17 19:00N 26°05' W 079°56'1 2.2
2017-Nov-17 18:30N 26°06' W 079°56'2 4.3
2017-Nov-17 18:00N 26°08' W 079°56'2 4.4
2017-Nov-17 17:30N 26°10' W 079°56'2 4.5
2017-Nov-17 17:00N 26°13' W 079°56'4 7.8
2017-Nov-17 16:29N 26°17' W 079°56'4415.4
2017-Nov-17 13:39N 27°00' W 079°57'  
2017-Nov-15 03:30N 26°59' W 079°57'1515.5
2017-Nov-15 02:33N 26°45' W 079°56'116.6
2017-Nov-15 02:29N 26°44' W 079°56'817.0
2017-Nov-15 02:00N 26°35' W 079°56'1918.2
2017-Nov-15 00:57N 26°16' W 079°58'817.9
2017-Nov-15 00:30N 26°09' W 080°02'510.7
2017-Nov-15 00:00N 26°06' W 080°06'2 3.5
2017-Nov-14 23:30N 26°04' W 080°07'0 0.0
2017-Nov-14 23:00N 26°04' W 080°07'0 0.0
2017-Nov-14 22:30N 26°04' W 080°07'0 0.0
2017-Nov-14 22:00N 26°04' W 080°07'0 0.0
2017-Nov-14 21:30N 26°04' W 080°07'0 0.0
2017-Nov-14 21:00N 26°04' W 080°07'0 0.0
2017-Nov-14 20:27N 26°04' W 080°07'0 0.0
2017-Nov-14 20:00N 26°04' W 080°07'0 0.0
2017-Nov-14 19:30N 26°04' W 080°07'0 0.0
2017-Nov-14 19:00N 26°04' W 080°07'0 0.0
2017-Nov-14 18:30N 26°04' W 080°07'0 0.0
2017-Nov-14 18:00N 26°04' W 080°07'0 0.0
2017-Nov-14 17:30N 26°04' W 080°07'0 0.0
2017-Nov-14 17:00N 26°04' W 080°07'0 0.0
2017-Nov-14 16:30N 26°04' W 080°07'0 0.0
2017-Nov-14 15:51N 26°04' W 080°07'0 0.0
2017-Nov-14 15:21N 26°04' W 080°07'0 0.0
2017-Nov-14 14:51N 26°04' W 080°07'0 0.0
2017-Nov-14 14:24N 26°04' W 080°07'0 0.0
2017-Nov-14 13:54N 26°04' W 080°07'0 0.0
2017-Nov-14 13:24N 26°04' W 080°07'0 0.0
2017-Nov-14 12:54N 26°04' W 080°07'0 0.0
2017-Nov-14 12:24N 26°04' W 080°07'0 0.0
2017-Nov-14 11:42N 26°04' W 080°07'0 0.0
2017-Nov-14 11:27N 26°04' W 080°07'0 0.6
2017-Nov-14 11:00N 26°04' W 080°07'1 3.0
2017-Nov-14 10:30N 26°06' W 080°06'5 9.0
2017-Nov-14 10:00N 26°05' W 080°02'3 6.7
2017-Nov-14 09:30N 26°02' W 079°59'918.0
2017-Nov-14 09:00N 25°55' W 079°53'5516.3
2017-Nov-14 05:36N 25°00' W 079°43'217.8
2017-Nov-14 05:31N 24°59' W 079°43'  

Dump ship's entire track history